Time;durP1;ratioP1;P1;durP2;ratioP2;P2;SDS_P1;SDS_P2;PMS_P1;PMS_P2;Temp;Humidity;BMP_temperature;BMP_pressure;BME280_temperature;BME280_humidity;BME280_pressure;Samples;Min_cycle;Max_cycle;Signal;HPM_P1;HPM_P2
2023/05/23 00:01:21;;;;;;;5.60;2.60;;;;;;;;;;4946069;28;106742;-83
2023/05/23 00:03:48;;;;;;;4.95;2.45;;;;;;;;;;4968522;28;100296;-83
2023/05/23 00:06:20;;;;;;;5.93;2.63;;;;;;;;;;4967749;28;99644;-84
2023/05/23 00:08:49;;;;;;;;;;;;;;;;;;4968820;28;97825;-83
2023/05/23 00:11:17;;;;;;;5.50;2.65;;;;;;;;;;4969686;28;98660;-83
2023/05/23 00:13:44;;;;;;;5.63;2.60;;;;;;;;;;4938532;28;102052;-83
2023/05/23 00:16:10;;;;;;;5.38;2.53;;;;;;;;;;4960059;28;99435;-83
2023/05/23 00:18:39;;;;;;;6.40;2.63;;;;;;;;;;4968405;28;98549;-83
2023/05/23 00:21:06;;;;;;;6.07;2.75;;;;;;;;;;4966361;28;98475;-83
2023/05/23 00:23:34;;;;;;;5.95;2.90;;;;;;;;;;4965999;28;99090;-83
2023/05/23 00:26:01;;;;;;;5.93;2.75;;;;;;;;;;4948588;28;100322;-83
2023/05/23 00:28:28;;;;;;;6.20;2.67;;;;;;;;;;4948188;28;99131;-82
2023/05/23 00:30:54;;;;;;;6.28;2.70;;;;;;;;;;4959373;28;101897;-82
2023/05/23 00:33:21;;;;;;;6.00;2.80;;;;;;;;;;4948940;28;98321;-84
2023/05/23 00:35:48;;;;;;;7.00;3.00;;;;;;;;;;4958269;28;99368;-83
2023/05/23 00:38:15;;;;;;;5.43;2.70;;;;;;;;;;4966361;28;100137;-82
2023/05/23 00:40:42;;;;;;;6.05;2.75;;;;;;;;;;4968577;28;102914;-83
2023/05/23 00:43:09;;;;;;;6.95;2.90;;;;;;;;;;4962988;28;99434;-83
2023/05/23 00:45:35;;;;;;;5.50;2.65;;;;;;;;;;4956824;28;100035;-83
2023/05/23 00:48:03;;;;;;;6.97;2.78;;;;;;;;;;4967975;28;99176;-83
2023/05/23 00:50:30;;;;;;;6.30;2.70;;;;;;;;;;4968391;28;99095;-83
2023/05/23 00:52:59;;;;;;;6.40;2.95;;;;;;;;;;4949490;28;106137;-83
2023/05/23 00:55:26;;;;;;;6.68;2.88;;;;;;;;;;4967704;28;98750;-83
2023/05/23 00:57:55;;;;;;;5.63;2.65;;;;;;;;;;4959622;28;99447;-83
2023/05/23 01:00:25;;;;;;;6.65;2.85;;;;;;;;;;4965262;28;99773;-83
2023/05/23 01:02:53;;;;;;;6.57;2.85;;;;;;;;;;4968103;28;98742;-83
2023/05/23 01:05:23;;;;;;;6.22;2.90;;;;;;;;;;4966533;28;99944;-83
2023/05/23 01:07:51;;;;;;;5.93;2.50;;;;;;;;;;4967065;28;98510;-83
2023/05/23 01:10:22;;;;;;;5.65;2.75;;;;;;;;;;4949024;28;101476;-83
2023/05/23 01:12:55;;;;;;;6.88;2.80;;;;;;;;;;4932170;28;99639;-83
2023/05/23 01:15:30;;;;;;;6.50;2.80;;;;;;;;;;4978118;28;98649;-82
2023/05/23 01:17:57;;;;;;;5.55;2.67;;;;;;;;;;4959489;28;98761;-83
2023/05/23 01:20:29;;;;;;;5.22;2.65;;;;;;;;;;4949904;28;101926;-82
2023/05/23 01:22:59;;;;;;;5.30;2.42;;;;;;;;;;4933706;28;98191;-83
2023/05/23 01:25:29;;;;;;;6.22;2.70;;;;;;;;;;4951808;28;100840;-83
2023/05/23 01:27:58;;;;;;;6.30;2.80;;;;;;;;;;4966347;28;99372;-83
2023/05/23 01:30:30;;;;;;;5.95;2.78;;;;;;;;;;4954167;28;102086;-83
2023/05/23 01:32:57;;;;;;;6.13;2.60;;;;;;;;;;4949339;28;106218;-83
2023/05/23 01:35:25;;;;;;;;;;;;;;;;;;4947961;28;99117;-83
2023/05/23 01:37:56;;;;;;;5.45;2.63;;;;;;;;;;4947616;28;99592;-83
2023/05/23 01:40:23;;;;;;;5.68;2.60;;;;;;;;;;4947015;28;98459;-83
2023/05/23 01:42:51;;;;;;;6.13;2.70;;;;;;;;;;4947268;28;99908;-82
2023/05/23 01:45:18;;;;;;;6.28;2.40;;;;;;;;;;4950294;28;99219;-82
2023/05/23 01:47:45;;;;;;;6.07;2.65;;;;;;;;;;4948323;28;98338;-83
2023/05/23 01:50:14;;;;;;;5.78;2.70;;;;;;;;;;4948244;28;98511;-83
2023/05/23 01:52:40;;;;;;;5.32;2.55;;;;;;;;;;4945411;28;101595;-83
2023/05/23 01:55:08;;;;;;;4.88;2.35;;;;;;;;;;4935528;28;100410;-82
2023/05/23 01:57:37;;;;;;;5.22;2.50;;;;;;;;;;4946808;28;101900;-83
2023/05/23 02:00:05;;;;;;;5.85;2.60;;;;;;;;;;4945119;28;101938;-82
2023/05/23 02:02:38;;;;;;;6.30;2.63;;;;;;;;;;4940833;28;98644;-83
2023/05/23 02:05:07;;;;;;;6.05;2.80;;;;;;;;;;4939884;28;102140;-82
2023/05/23 02:07:34;;;;;;;5.80;2.45;;;;;;;;;;4949709;28;99101;-83
2023/05/23 02:10:05;;;;;;;5.25;2.35;;;;;;;;;;4946425;28;99866;-83
2023/05/23 02:12:32;;;;;;;4.88;2.28;;;;;;;;;;4944309;28;99949;-82
2023/05/23 02:14:58;;;;;;;4.80;2.30;;;;;;;;;;4946349;28;98581;-82
2023/05/23 02:17:25;;;;;;;6.00;2.65;;;;;;;;;;4944968;28;101929;-83
2023/05/23 02:19:52;;;;;;;6.95;2.50;;;;;;;;;;4944080;28;101813;-83
2023/05/23 02:22:23;;;;;;;5.32;2.53;;;;;;;;;;4944991;28;98687;-82
2023/05/23 02:24:50;;;;;;;6.90;2.75;;;;;;;;;;4942862;28;99974;-83
2023/05/23 02:27:17;;;;;;;5.93;2.47;;;;;;;;;;4944624;28;100026;-83
2023/05/23 02:29:44;;;;;;;5.88;2.35;;;;;;;;;;4948304;28;98861;-84
2023/05/23 02:32:11;;;;;;;5.65;2.50;;;;;;;;;;4946389;28;100079;-83
2023/05/23 02:34:39;;;;;;;5.20;2.38;;;;;;;;;;4944218;28;99094;-83
2023/05/23 02:37:05;;;;;;;4.57;2.28;;;;;;;;;;4944610;28;100402;-84
2023/05/23 02:39:34;;;;;;;6.15;2.90;;;;;;;;;;4944063;28;101601;-83
2023/05/23 02:42:01;;;;;;;6.38;2.65;;;;;;;;;;4929278;28;99242;-83
2023/05/23 02:44:28;;;;;;;5.90;2.50;;;;;;;;;;4944073;28;100288;-83
2023/05/23 02:46:55;;;;;;;;;;;;;;;;;;4945159;28;100140;-83
2023/05/23 02:49:22;;;;;;;6.40;2.40;;;;;;;;;;4947169;28;98968;-83
2023/05/23 02:51:49;;;;;;;5.95;2.33;;;;;;;;;;4947488;28;101858;-83
2023/05/23 02:54:16;;;;;;;7.10;2.60;;;;;;;;;;4945885;28;98821;-83
2023/05/23 02:56:44;;;;;;;5.57;2.33;;;;;;;;;;4943469;28;101085;-82
2023/05/23 02:59:11;;;;;;;5.10;2.42;;;;;;;;;;4946908;28;100643;-82
2023/05/23 03:01:38;;;;;;;5.60;2.50;;;;;;;;;;4965902;28;99077;-83
2023/05/23 03:04:05;;;;;;;5.65;2.50;;;;;;;;;;4948567;28;99395;-82
2023/05/23 03:06:32;;;;;;;6.03;2.53;;;;;;;;;;4946069;28;99009;-83
2023/05/23 03:09:00;;;;;;;5.47;2.30;;;;;;;;;;4944259;28;99748;-83
2023/05/23 03:11:28;;;;;;;6.68;2.20;;;;;;;;;;4948641;28;99503;-83
2023/05/23 03:13:55;;;;;;;5.57;2.40;;;;;;;;;;4944153;28;98969;-82
2023/05/23 03:16:23;;;;;;;6.32;2.38;;;;;;;;;;4945204;28;99338;-83
2023/05/23 03:18:49;;;;;;;5.88;2.40;;;;;;;;;;4926842;28;99702;-83
2023/05/23 03:21:16;;;;;;;7.00;2.80;;;;;;;;;;4946069;28;98511;-83
2023/05/23 03:23:43;;;;;;;6.28;2.35;;;;;;;;;;4944042;28;101830;-82
2023/05/23 03:26:10;;;;;;;7.18;2.75;;;;;;;;;;4946167;28;97793;-83
2023/05/23 03:28:37;;;;;;;;;;;;;;;;;;4944432;28;98846;-82
2023/05/23 03:31:03;;;;;;;6.03;2.40;;;;;;;;;;4946998;28;99385;-83
2023/05/23 03:33:30;;;;;;;4.82;2.15;;;;;;;;;;4946073;28;103286;-83
2023/05/23 03:35:57;;;;;;;5.50;2.30;;;;;;;;;;4943739;28;100024;-83
2023/05/23 03:38:23;;;;;;;5.20;2.25;;;;;;;;;;4945247;28;99754;-83
2023/05/23 03:40:50;;;;;;;6.65;2.35;;;;;;;;;;4942489;28;98992;-82
2023/05/23 03:43:18;;;;;;;7.70;2.75;;;;;;;;;;4943091;28;101648;-82
2023/05/23 03:45:46;;;;;;;6.32;2.67;;;;;;;;;;4943633;28;100132;-83
2023/05/23 03:48:15;;;;;;;5.13;2.28;;;;;;;;;;4943614;28;98907;-82
2023/05/23 03:50:42;;;;;;;5.57;2.35;;;;;;;;;;4927057;28;101232;-83
2023/05/23 03:53:10;;;;;;;5.93;2.55;;;;;;;;;;4939520;28;102073;-83
2023/05/23 03:55:37;;;;;;;6.38;2.30;;;;;;;;;;4950019;28;98780;-83
2023/05/23 03:58:05;;;;;;;6.43;2.55;;;;;;;;;;4944364;28;102656;-83
2023/05/23 04:00:31;;;;;;;7.03;2.67;;;;;;;;;;4939929;28;99252;-82
2023/05/23 04:03:00;;;;;;;6.72;2.60;;;;;;;;;;4947396;28;101964;-83
2023/05/23 04:05:28;;;;;;;5.68;2.65;;;;;;;;;;4946721;28;101227;-83
2023/05/23 04:07:55;;;;;;;6.78;2.60;;;;;;;;;;4946865;28;98773;-82
2023/05/23 04:10:22;;;;;;;8.07;2.65;;;;;;;;;;4947863;28;99779;-83
2023/05/23 04:12:50;;;;;;;6.78;2.55;;;;;;;;;;4945132;28;102381;-82
2023/05/23 04:15:20;;;;;;;5.88;2.45;;;;;;;;;;4947866;28;97820;-83
2023/05/23 04:18:02;;;;;;;5.05;2.35;;;;;;;;;;4949860;28;99848;-83
2023/05/23 04:20:29;;;;;;;7.97;2.78;;;;;;;;;;4948091;28;98534;-82
2023/05/23 04:22:56;;;;;;;6.22;2.40;;;;;;;;;;4947066;28;100541;-83
2023/05/23 04:25:25;;;;;;;6.90;2.58;;;;;;;;;;4946489;28;101474;-83
2023/05/23 04:28:09;;;;;;;8.90;2.95;;;;;;;;;;4960487;28;98613;-82
2023/05/23 04:30:36;;;;;;;8.70;2.72;;;;;;;;;;4959614;28;100417;-82
2023/05/23 04:33:03;;;;;;;5.78;2.50;;;;;;;;;;4966113;28;99116;-83
2023/05/23 04:35:33;;;;;;;7.00;2.90;;;;;;;;;;4946284;28;99037;-83
2023/05/23 04:38:00;;;;;;;7.45;2.80;;;;;;;;;;4946525;28;102813;-83
2023/05/23 04:40:29;;;;;;;6.78;2.55;;;;;;;;;;4952050;28;99696;-82
2023/05/23 04:43:15;;;;;;;7.95;2.97;;;;;;;;;;4947662;28;103072;-83
2023/05/23 04:45:53;;;;;;;7.10;2.65;;;;;;;;;;4945194;28;102102;-83
2023/05/23 04:48:35;;;;;;;7.22;2.55;;;;;;;;;;4958166;28;99252;-82
2023/05/23 04:51:05;;;;;;;6.07;2.40;;;;;;;;;;4949687;28;102697;-83
2023/05/23 04:53:31;;;;;;;8.07;2.70;;;;;;;;;;4965046;28;101828;-83
2023/05/23 04:55:58;;;;;;;6.00;2.58;;;;;;;;;;4962926;28;98591;-81
2023/05/23 04:58:25;;;;;;;7.15;2.53;;;;;;;;;;4964680;28;101368;-82
2023/05/23 05:00:55;;;;;;;7.63;2.55;;;;;;;;;;4948064;28;100815;-81
2023/05/23 05:03:23;;;;;;;7.95;2.78;;;;;;;;;;4960601;28;99236;-82
2023/05/23 05:05:50;;;;;;;9.65;2.50;;;;;;;;;;4964379;28;98971;-82
2023/05/23 05:08:18;;;;;;;7.78;2.50;;;;;;;;;;4952488;28;98706;-83
2023/05/23 05:10:45;;;;;;;7.43;2.42;;;;;;;;;;4962679;28;101855;-80
2023/05/23 05:13:13;;;;;;;;;;;;;;;;;;4942642;28;102224;-84
2023/05/23 05:15:43;;;;;;;6.63;2.47;;;;;;;;;;4961104;28;98427;-81
2023/05/23 05:18:12;;;;;;;8.52;2.70;;;;;;;;;;4960845;28;99773;-82
2023/05/23 05:20:39;;;;;;;7.35;2.63;;;;;;;;;;4959502;28;100722;-81
2023/05/23 05:23:08;;;;;;;6.60;2.50;;;;;;;;;;4963716;28;98437;-82
2023/05/23 05:25:37;;;;;;;6.97;2.40;;;;;;;;;;4952768;28;101003;-82
2023/05/23 05:28:05;;;;;;;5.40;2.22;;;;;;;;;;4961820;28;98459;-82
2023/05/23 05:30:37;;;;;;;5.85;2.33;;;;;;;;;;4958296;28;99802;-82
2023/05/23 05:33:04;;;;;;;6.90;2.45;;;;;;;;;;4957323;28;101140;-82
2023/05/23 05:35:32;;;;;;;7.93;2.65;;;;;;;;;;4958343;28;98506;-81
2023/05/23 05:37:59;;;;;;;6.40;2.42;;;;;;;;;;4939668;28;100197;-82
2023/05/23 05:40:25;;;;;;;5.80;2.10;;;;;;;;;;4956057;28;100117;-81
2023/05/23 05:42:52;;;;;;;8.80;2.63;;;;;;;;;;4950357;28;98744;-83
2023/05/23 05:45:20;;;;;;;7.43;2.90;;;;;;;;;;4949653;28;102017;-84
2023/05/23 05:47:47;;;;;;;5.32;2.17;;;;;;;;;;4946260;28;99270;-82
2023/05/23 05:50:19;;;;;;;7.95;2.58;;;;;;;;;;4948816;28;100880;-83
2023/05/23 05:52:45;;;;;;;6.47;2.22;;;;;;;;;;4932733;28;102174;-84
2023/05/23 05:55:12;;;;;;;5.47;2.40;;;;;;;;;;4950775;28;97907;-82
2023/05/23 05:57:44;;;;;;;6.43;2.30;;;;;;;;;;4951222;28;101719;-83
2023/05/23 06:00:13;;;;;;;;;;;;;;;;;;4969621;28;100478;-84
2023/05/23 06:02:56;;;;;;;6.43;2.25;;;;;;;;;;4963352;28;99187;-83
2023/05/23 06:05:36;;;;;;;6.05;2.25;;;;;;;;;;4968159;28;101579;-84
2023/05/23 06:08:03;;;;;;;6.45;2.20;;;;;;;;;;4950927;28;102022;-83
2023/05/23 06:10:30;;;;;;;7.03;2.35;;;;;;;;;;4964398;28;100452;-82
2023/05/23 06:13:00;;;;;;;5.97;2.17;;;;;;;;;;4966478;28;103928;-83
2023/05/23 06:15:28;;;;;;;6.68;2.53;;;;;;;;;;4968190;28;98699;-83
2023/05/23 06:17:57;;;;;;;6.28;2.20;;;;;;;;;;4969178;28;100157;-83
2023/05/23 06:20:24;;;;;;;7.13;2.42;;;;;;;;;;4967292;28;100505;-82
2023/05/23 06:22:53;;;;;;;7.90;2.30;;;;;;;;;;4950232;28;98870;-83
2023/05/23 06:25:21;;;;;;;6.20;2.17;;;;;;;;;;4963780;28;98654;-83
2023/05/23 06:27:48;;;;;;;5.47;2.47;;;;;;;;;;4949985;28;101070;-82
2023/05/23 06:30:15;;;;;;;6.38;2.42;;;;;;;;;;4953450;28;99115;-83
2023/05/23 06:32:44;;;;;;;5.90;2.15;;;;;;;;;;4948189;28;100375;-82
2023/05/23 06:35:10;;;;;;;6.88;2.50;;;;;;;;;;4953681;28;98788;-83
2023/05/23 06:37:39;;;;;;;6.68;2.20;;;;;;;;;;4969927;28;99365;-84
2023/05/23 06:40:06;;;;;;;7.72;2.38;;;;;;;;;;4947950;28;100348;-82
2023/05/23 06:42:33;;;;;;;5.85;2.20;;;;;;;;;;4950125;28;98624;-82
2023/05/23 06:45:09;;;;;;;6.43;2.10;;;;;;;;;;4951216;28;99328;-83
2023/05/23 06:47:36;;;;;;;5.97;2.28;;;;;;;;;;4947340;28;101295;-83
2023/05/23 06:50:03;;;;;;;6.93;2.38;;;;;;;;;;4948036;28;98752;-83
2023/05/23 06:52:31;;;;;;;6.32;2.38;;;;;;;;;;4950823;28;100216;-82
2023/05/23 06:54:58;;;;;;;5.70;2.30;;;;;;;;;;4963346;28;98709;-83
2023/05/23 06:57:25;;;;;;;7.60;2.47;;;;;;;;;;4946592;28;99998;-82
2023/05/23 06:59:52;;;;;;;5.57;2.15;;;;;;;;;;4941027;28;99343;-83
2023/05/23 07:02:19;;;;;;;7.80;2.50;;;;;;;;;;4945833;28;98755;-83
2023/05/23 07:04:46;;;;;;;5.82;2.20;;;;;;;;;;4939452;28;99086;-84
2023/05/23 07:07:26;;;;;;;6.07;2.38;;;;;;;;;;4950062;28;100363;-81
2023/05/23 07:09:53;;;;;;;5.82;2.17;;;;;;;;;;4948831;28;97792;-82
2023/05/23 07:12:20;;;;;;;5.72;2.20;;;;;;;;;;4973625;28;100921;-83
2023/05/23 07:14:47;;;;;;;7.13;2.40;;;;;;;;;;4971413;28;101981;-83
2023/05/23 07:17:16;;;;;;;7.15;2.40;;;;;;;;;;4947027;28;100035;-83
2023/05/23 07:19:44;;;;;;;6.72;2.35;;;;;;;;;;4954101;28;101316;-83
2023/05/23 07:22:11;;;;;;;6.63;2.42;;;;;;;;;;4948426;28;98991;-83
2023/05/23 07:24:40;;;;;;;6.07;2.17;;;;;;;;;;4943345;28;99021;-82
2023/05/23 07:27:08;;;;;;;5.35;2.15;;;;;;;;;;4948117;28;101451;-83
2023/05/23 07:29:38;;;;;;;6.65;2.20;;;;;;;;;;4950485;28;98899;-83
2023/05/23 07:32:06;;;;;;;5.85;2.17;;;;;;;;;;4951435;28;100161;-83
2023/05/23 07:34:33;;;;;;;5.55;2.10;;;;;;;;;;4940009;28;99665;-83
2023/05/23 07:37:00;;;;;;;5.35;2.03;;;;;;;;;;4951243;28;100708;-83
2023/05/23 07:39:34;;;;;;;6.78;2.50;;;;;;;;;;4951580;28;101902;-83
2023/05/23 07:42:01;;;;;;;;;;;;;;;;;;4958922;28;99377;-81
2023/05/23 07:44:28;;;;;;;5.90;2.10;;;;;;;;;;4967374;28;101753;-82
2023/05/23 07:46:54;;;;;;;5.43;2.03;;;;;;;;;;4938420;28;101980;-83
2023/05/23 07:49:22;;;;;;;5.22;2.03;;;;;;;;;;4966184;28;98759;-81
2023/05/23 07:51:49;;;;;;;6.28;2.28;;;;;;;;;;4966376;28;102299;-81
2023/05/23 07:54:16;;;;;;;6.72;2.20;;;;;;;;;;4967593;28;99405;-82
2023/05/23 07:56:44;;;;;;;6.97;2.10;;;;;;;;;;4970237;28;98617;-81
2023/05/23 07:59:12;;;;;;;5.38;2.00;;;;;;;;;;4966352;28;100921;-81
2023/05/23 08:01:40;;;;;;;4.35;1.83;;;;;;;;;;4957436;28;99382;-81
2023/05/23 08:04:11;;;;;;;6.65;2.22;;;;;;;;;;4967428;28;99217;-82
2023/05/23 08:06:49;;;;;;;4.97;2.00;;;;;;;;;;4963998;28;102734;-81
2023/05/23 08:09:59;;;;;;;4.95;1.70;;;;;;;;;;4970230;28;98675;-82
2023/05/23 08:12:26;;;;;;;6.38;2.00;;;;;;;;;;4940704;28;100000;-81
2023/05/23 08:15:04;;;;;;;6.43;2.15;;;;;;;;;;4953608;28;106374;-82
2023/05/23 08:17:37;;;;;;;5.97;1.90;;;;;;;;;;4966296;28;98826;-82
2023/05/23 08:20:04;;;;;;;5.22;1.70;;;;;;;;;;4969151;28;101755;-82
2023/05/23 08:22:31;;;;;;;6.60;2.08;;;;;;;;;;4943750;28;98589;-81
2023/05/23 08:24:58;;;;;;;4.70;1.58;;;;;;;;;;4946543;28;106046;-83
2023/05/23 08:27:26;;;;;;;6.63;1.80;;;;;;;;;;4938806;28;101812;-81
2023/05/23 08:29:56;;;;;;;6.20;1.95;;;;;;;;;;4947167;28;99026;-83
2023/05/23 08:32:23;;;;;;;5.80;1.95;;;;;;;;;;4946064;28;101435;-83
2023/05/23 08:34:50;;;;;;;6.28;2.00;;;;;;;;;;4945381;28;101753;-83
2023/05/23 08:37:17;;;;;;;6.25;1.73;;;;;;;;;;4945705;28;99154;-83
2023/05/23 08:39:44;;;;;;;5.82;1.75;;;;;;;;;;4930302;28;100069;-82
2023/05/23 08:42:36;;;;;;;6.32;1.70;;;;;;;;;;4947233;28;105639;-82
2023/05/23 08:45:05;;;;;;;5.22;1.60;;;;;;;;;;4946223;28;101596;-83
2023/05/23 08:47:33;;;;;;;6.30;1.70;;;;;;;;;;4946076;28;99564;-83
2023/05/23 08:50:01;;;;;;;4.28;1.67;;;;;;;;;;4946612;28;98233;-83
2023/05/23 08:52:28;;;;;;;7.50;1.70;;;;;;;;;;4946080;28;99624;-83
2023/05/23 08:54:58;;;;;;;5.93;1.77;;;;;;;;;;4942429;28;106566;-83
2023/05/23 08:57:29;;;;;;;6.57;1.63;;;;;;;;;;4961649;28;99673;-83
2023/05/23 09:00:01;;;;;;;5.50;1.55;;;;;;;;;;4959904;28;102527;-82
2023/05/23 09:02:30;;;;;;;6.30;1.80;;;;;;;;;;4961313;28;99066;-83
2023/05/23 09:05:08;;;;;;;5.65;1.50;;;;;;;;;;4971639;28;99011;-82
2023/05/23 09:07:35;;;;;;;5.90;1.60;;;;;;;;;;4956025;28;101817;-83
2023/05/23 09:10:07;;;;;;;5.32;1.80;;;;;;;;;;4955012;28;98493;-82
2023/05/23 09:12:36;;;;;;;6.07;1.80;;;;;;;;;;4936541;28;100481;-82
2023/05/23 09:15:06;;;;;;;5.18;1.65;;;;;;;;;;4947669;28;99789;-82
2023/05/23 09:17:33;;;;;;;5.97;1.85;;;;;;;;;;4945280;28;98874;-82
2023/05/23 09:20:01;;;;;;;6.15;1.90;;;;;;;;;;4946056;28;99843;-82
2023/05/23 09:22:40;;;;;;;5.38;1.67;;;;;;;;;;4943594;28;102132;-81
2023/05/23 09:25:12;;;;;;;7.40;1.65;;;;;;;;;;4931879;28;98623;-82
2023/05/23 09:27:40;;;;;;;4.88;1.80;;;;;;;;;;4947488;28;101141;-82
2023/05/23 09:30:07;;;;;;;;;;;;;;;;;;4945852;28;99140;-82
2023/05/23 09:32:34;;;;;;;5.45;1.63;;;;;;;;;;4946359;28;99700;-81
2023/05/23 09:35:05;;;;;;;6.07;1.75;;;;;;;;;;4944530;28;101983;-82
2023/05/23 09:37:34;;;;;;;7.43;1.77;;;;;;;;;;4944829;28;98630;-83
2023/05/23 09:40:05;;;;;;;5.20;1.50;;;;;;;;;;4945693;28;102491;-82
2023/05/23 09:42:32;;;;;;;6.00;1.55;;;;;;;;;;4927945;28;101888;-81
2023/05/23 09:44:59;;;;;;;6.53;1.73;;;;;;;;;;4945158;28;99120;-82
2023/05/23 09:47:29;;;;;;;5.35;1.90;;;;;;;;;;4949598;28;99798;-81
2023/05/23 09:49:56;;;;;;;5.75;1.70;;;;;;;;;;4945636;28;98937;-82
2023/05/23 09:52:23;;;;;;;5.75;1.50;;;;;;;;;;4946708;28;99570;-83
2023/05/23 09:54:49;;;;;;;5.57;1.80;;;;;;;;;;4928382;28;101571;-82
2023/05/23 09:57:18;;;;;;;5.97;1.70;;;;;;;;;;4944570;28;98996;-82
2023/05/23 09:59:51;;;;;;;6.15;1.63;;;;;;;;;;4946677;28;98750;-83
2023/05/23 10:02:23;;;;;;;5.32;1.50;;;;;;;;;;4944220;28;103424;-83
2023/05/23 10:04:51;;;;;;;5.70;1.60;;;;;;;;;;4946179;28;98102;-81
2023/05/23 10:07:19;;;;;;;4.95;1.52;;;;;;;;;;4944273;28;99136;-83
2023/05/23 10:09:52;;;;;;;5.72;1.48;;;;;;;;;;4931466;28;102234;-83
2023/05/23 10:12:24;;;;;;;6.07;1.63;;;;;;;;;;4945352;28;99326;-82
2023/05/23 10:14:56;;;;;;;4.85;1.73;;;;;;;;;;4944306;28;99204;-83
2023/05/23 10:17:36;;;;;;;4.47;1.60;;;;;;;;;;4944900;28;98624;-84
2023/05/23 10:20:07;;;;;;;6.07;1.52;;;;;;;;;;4946251;28;99999;-83
2023/05/23 10:22:37;;;;;;;6.95;1.85;;;;;;;;;;4946834;28;99741;-81
2023/05/23 10:25:09;;;;;;;6.32;1.70;;;;;;;;;;4947605;28;98635;-82
2023/05/23 10:27:36;;;;;;;5.53;1.60;;;;;;;;;;4947943;28;99496;-83
2023/05/23 10:30:04;;;;;;;6.55;1.60;;;;;;;;;;4944700;28;101019;-81
2023/05/23 10:32:31;;;;;;;4.45;1.40;;;;;;;;;;4949463;28;98655;-83
2023/05/23 10:35:00;;;;;;;6.03;1.70;;;;;;;;;;4931824;28;104438;-82
2023/05/23 10:37:45;;;;;;;5.78;1.50;;;;;;;;;;4945707;28;99290;-82
2023/05/23 10:40:16;;;;;;;4.95;1.60;;;;;;;;;;4946444;28;100015;-83
2023/05/23 10:42:48;;;;;;;6.50;1.45;;;;;;;;;;4944621;28;100280;-83
2023/05/23 10:45:19;;;;;;;5.50;1.40;;;;;;;;;;4945002;28;98576;-83
2023/05/23 10:47:49;;;;;;;4.50;1.40;;;;;;;;;;4935867;28;98689;-83
2023/05/23 10:50:33;;;;;;;4.63;1.42;;;;;;;;;;4943923;28;99116;-83
2023/05/23 10:53:01;;;;;;;6.32;1.42;;;;;;;;;;4944943;28;98667;-83
2023/05/23 10:55:35;;;;;;;6.75;1.60;;;;;;;;;;4948070;28;100017;-82
2023/05/23 10:58:14;;;;;;;5.53;1.40;;;;;;;;;;4945464;28;98861;-82
2023/05/23 11:00:53;;;;;;;5.50;1.65;;;;;;;;;;4961123;28;99382;-82
2023/05/23 11:03:34;;;;;;;4.60;1.48;;;;;;;;;;4958202;28;99889;-82
2023/05/23 11:06:02;;;;;;;6.28;1.63;;;;;;;;;;4953919;28;98686;-82
2023/05/23 11:08:40;;;;;;;5.68;1.70;;;;;;;;;;4944550;28;98851;-81
2023/05/23 11:11:14;;;;;;;;;;;;;;;;;;4961138;28;104735;-82
2023/05/23 11:13:58;;;;;;;6.70;1.58;;;;;;;;;;4959014;28;98841;-84
2023/05/23 11:16:29;;;;;;;6.13;1.50;;;;;;;;;;4953697;28;98904;-83
2023/05/23 11:19:16;;;;;;;5.40;1.60;;;;;;;;;;4970347;28;99175;-82
2023/05/23 11:21:44;;;;;;;5.10;1.40;;;;;;;;;;4942900;28;98661;-82
2023/05/23 11:24:10;;;;;;;;;;;;;;;;;;4968706;28;100732;-84
2023/05/23 11:26:37;;;;;;;5.65;1.60;;;;;;;;;;4972212;28;110604;-83
2023/05/23 11:29:08;;;;;;;6.03;1.55;;;;;;;;;;4968223;28;99359;-83
2023/05/23 11:31:39;;;;;;;6.00;1.60;;;;;;;;;;4963234;28;99126;-83
2023/05/23 11:34:06;;;;;;;5.28;1.75;;;;;;;;;;4950990;28;99162;-83
2023/05/23 11:36:33;;;;;;;5.75;1.33;;;;;;;;;;4948145;28;99063;-81
2023/05/23 11:39:03;;;;;;;5.85;1.58;;;;;;;;;;4947970;28;99210;-82
2023/05/23 11:41:30;;;;;;;4.93;1.40;;;;;;;;;;4952025;28;98536;-82
2023/05/23 11:43:58;;;;;;;5.13;1.50;;;;;;;;;;4946741;28;101839;-81
2023/05/23 11:46:25;;;;;;;4.47;1.55;;;;;;;;;;4948753;28;97852;-84
2023/05/23 11:48:52;;;;;;;5.78;1.50;;;;;;;;;;4947148;28;98618;-83
2023/05/23 11:51:20;;;;;;;5.72;1.50;;;;;;;;;;4947985;28;100286;-83
2023/05/23 11:53:47;;;;;;;3.80;1.33;;;;;;;;;;4939649;28;99600;-83
2023/05/23 11:56:14;;;;;;;5.70;1.48;;;;;;;;;;4948224;28;99437;-83
2023/05/23 11:58:41;;;;;;;6.30;1.52;;;;;;;;;;4937382;28;99394;-81
2023/05/23 12:01:08;;;;;;;;;;;;;;;;;;4951467;28;98748;-82
2023/05/23 12:03:43;;;;;;;5.38;1.35;;;;;;;;;;4947614;28;100797;-82
2023/05/23 12:06:10;;;;;;;4.88;1.40;;;;;;;;;;4948406;28;98616;-82
2023/05/23 12:08:39;;;;;;;3.83;1.42;;;;;;;;;;4947193;28;98795;-82
2023/05/23 12:11:06;;;;;;;4.88;1.55;;;;;;;;;;4948611;28;105013;-82
2023/05/23 12:13:33;;;;;;;4.30;1.40;;;;;;;;;;4940291;28;99317;-83
2023/05/23 12:16:00;;;;;;;6.03;1.48;;;;;;;;;;4947508;28;99125;-82
2023/05/23 12:18:28;;;;;;;3.53;1.30;;;;;;;;;;4947005;28;99913;-82
2023/05/23 12:20:58;;;;;;;3.83;1.40;;;;;;;;;;4947123;28;98654;-82
2023/05/23 12:23:25;;;;;;;3.88;1.25;;;;;;;;;;4951255;28;101218;-83
2023/05/23 12:25:55;;;;;;;4.75;1.42;;;;;;;;;;4950435;28;99050;-82
2023/05/23 12:28:38;;;;;;;5.03;1.17;;;;;;;;;;4948550;28;98977;-83
2023/05/23 12:31:11;;;;;;;5.68;1.40;;;;;;;;;;4946980;28;103621;-83
2023/05/23 12:33:40;;;;;;;3.55;1.15;;;;;;;;;;4948024;28;98844;-82
2023/05/23 12:36:06;;;;;;;4.60;1.35;;;;;;;;;;4948302;28;99164;-82
2023/05/23 12:38:36;;;;;;;4.07;1.10;;;;;;;;;;4947079;28;99874;-81
2023/05/23 12:41:07;;;;;;;3.40;1.23;;;;;;;;;;4947765;28;98609;-82
2023/05/23 12:43:36;;;;;;;4.40;1.50;;;;;;;;;;4949091;28;99324;-83
2023/05/23 12:46:03;;;;;;;4.57;1.30;;;;;;;;;;4949398;28;99776;-83
2023/05/23 12:48:30;;;;;;;;;;;;;;;;;;4947728;28;98683;-82
2023/05/23 12:50:57;;;;;;;3.78;1.15;;;;;;;;;;4946397;28;99101;-83
2023/05/23 12:53:25;;;;;;;5.22;1.60;;;;;;;;;;4946081;28;98609;-82
2023/05/23 12:55:52;;;;;;;4.18;1.50;;;;;;;;;;4945954;28;100233;-83
2023/05/23 12:58:19;;;;;;;4.90;1.40;;;;;;;;;;4945213;28;101970;-83
2023/05/23 13:00:46;;;;;;;;;;;;;;;;;;4947517;28;98585;-84
2023/05/23 13:03:12;;;;;;;4.35;1.30;;;;;;;;;;4953387;28;100453;-81
2023/05/23 13:05:39;;;;;;;5.28;1.25;;;;;;;;;;4938090;28;100813;-81
2023/05/23 13:08:11;;;;;;;5.18;1.40;;;;;;;;;;4955920;28;99452;-82
2023/05/23 13:10:38;;;;;;;4.53;1.40;;;;;;;;;;4943839;28;99340;-82
2023/05/23 13:13:04;;;;;;;5.40;1.50;;;;;;;;;;4947341;28;98653;-82
2023/05/23 13:15:31;;;;;;;5.07;1.50;;;;;;;;;;4947950;28;99030;-82
2023/05/23 13:17:58;;;;;;;4.25;1.25;;;;;;;;;;4947136;28;99062;-83
2023/05/23 13:20:28;;;;;;;4.32;1.30;;;;;;;;;;4946518;28;99251;-82
2023/05/23 13:22:59;;;;;;;4.75;1.50;;;;;;;;;;4939077;28;98730;-83
2023/05/23 13:25:27;;;;;;;4.72;1.30;;;;;;;;;;4953755;28;98372;-82
2023/05/23 13:27:56;;;;;;;5.93;1.30;;;;;;;;;;4954010;28;98674;-83
2023/05/23 13:30:23;;;;;;;4.10;1.20;;;;;;;;;;4955074;28;99155;-84
2023/05/23 13:32:49;;;;;;;3.63;1.25;;;;;;;;;;4946179;28;99456;-83
2023/05/23 13:35:17;;;;;;;2.88;1.10;;;;;;;;;;4946450;28;99473;-83
2023/05/23 13:37:44;;;;;;;4.50;1.30;;;;;;;;;;4944794;28;99268;-82
2023/05/23 13:40:11;;;;;;;4.10;1.23;;;;;;;;;;4952687;28;98575;-83
2023/05/23 13:42:39;;;;;;;4.75;1.38;;;;;;;;;;4954658;28;98745;-83
2023/05/23 13:45:06;;;;;;;5.07;1.20;;;;;;;;;;4955279;28;99051;-83
2023/05/23 13:47:33;;;;;;;4.22;1.27;;;;;;;;;;4965595;28;98453;-83
2023/05/23 13:50:00;;;;;;;4.97;1.30;;;;;;;;;;4974214;28;98017;-84
2023/05/23 13:52:26;;;;;;;4.53;1.33;;;;;;;;;;4958372;28;98329;-83
2023/05/23 13:54:53;;;;;;;4.43;1.30;;;;;;;;;;4970348;28;97784;-83
2023/05/23 13:57:20;;;;;;;4.88;1.42;;;;;;;;;;4969866;28;99007;-82
2023/05/23 13:59:47;;;;;;;5.20;1.35;;;;;;;;;;4970380;28;98568;-83
2023/05/23 14:02:14;;;;;;;4.88;1.30;;;;;;;;;;4965865;28;97987;-82
2023/05/23 14:04:41;;;;;;;5.07;1.30;;;;;;;;;;4961051;28;98411;-83
2023/05/23 14:07:10;;;;;;;4.88;1.30;;;;;;;;;;4961630;28;98928;-82
2023/05/23 14:09:37;;;;;;;3.15;1.30;;;;;;;;;;4959550;28;98467;-83
2023/05/23 14:12:04;;;;;;;4.50;1.27;;;;;;;;;;4962253;28;98425;-84
2023/05/23 14:14:30;;;;;;;6.53;1.52;;;;;;;;;;4961874;28;98942;-83
2023/05/23 14:16:57;;;;;;;4.55;1.40;;;;;;;;;;4952673;28;102674;-83
2023/05/23 14:19:24;;;;;;;5.60;1.40;;;;;;;;;;4945145;28;98704;-83
2023/05/23 14:21:51;;;;;;;4.15;1.20;;;;;;;;;;4946321;28;99808;-83
2023/05/23 14:24:18;;;;;;;3.63;1.20;;;;;;;;;;4946785;28;98472;-84
2023/05/23 14:26:45;;;;;;;4.38;1.23;;;;;;;;;;4944475;28;99062;-82
2023/05/23 14:29:12;;;;;;;;;;;;;;;;;;4953467;28;98814;-83
2023/05/23 14:31:40;;;;;;;4.60;1.15;;;;;;;;;;4937730;28;101053;-83
2023/05/23 14:34:07;;;;;;;4.10;1.40;;;;;;;;;;4949869;28;98843;-83
2023/05/23 14:36:35;;;;;;;5.18;1.20;;;;;;;;;;4961709;28;99228;-82
2023/05/23 14:39:04;;;;;;;4.07;1.33;;;;;;;;;;4952859;28;97892;-82
2023/05/23 14:41:32;;;;;;;7.18;1.40;;;;;;;;;;4946264;28;99166;-83
2023/05/23 14:43:59;;;;;;;5.22;1.40;;;;;;;;;;4944679;28;100596;-82
2023/05/23 14:46:26;;;;;;;4.50;1.30;;;;;;;;;;4943599;28;99377;-82
2023/05/23 14:48:54;;;;;;;3.55;1.13;;;;;;;;;;4945710;28;99476;-82
2023/05/23 14:51:21;;;;;;;5.03;1.30;;;;;;;;;;4945479;28;99952;-83
2023/05/23 14:54:08;;;;;;;5.30;1.10;;;;;;;;;;4946410;28;98434;-83